sensor_id;sensor_type;location;lat;lon;timestamp;temperature;humidity
50067;DHT22;35952;52.524;13.340;2024-01-15T00:02:17;2.80;99.90
50067;DHT22;35952;52.524;13.340;2024-01-15T00:04:43;2.80;99.90
50067;DHT22;35952;52.524;13.340;2024-01-15T00:07:09;2.70;99.90
50067;DHT22;35952;52.524;13.340;2024-01-15T00:09:35;2.70;99.90
50067;DHT22;35952;52.524;13.340;2024-01-15T00:12:01;2.70;99.90
50067;DHT22;35952;52.524;13.340;2024-01-15T00:14:27;2.60;99.90
50067;DHT22;35952;52.524;13.340;2024-01-15T00:16:53;2.60;99.90
50067;DHT22;35952;52.524;13.340;2024-01-15T00:19:20;2.60;99.90
50067;DHT22;35952;52.524;13.340;2024-01-15T00:21:46;2.60;99.90
50067;DHT22;35952;52.524;13.340;2024-01-15T00:24:12;2.60;99.90
50067;DHT22;35952;52.524;13.340;2024-01-15T00:26:38;2.60;99.90
50067;DHT22;35952;52.524;13.340;2024-01-15T00:29:03;2.60;99.90
50067;DHT22;35952;52.524;13.340;2024-01-15T00:31:29;2.60;99.90
50067;DHT22;35952;52.524;13.340;2024-01-15T00:33:55;2.60;99.90
50067;DHT22;35952;52.524;13.340;2024-01-15T00:36:21;2.60;99.90
50067;DHT22;35952;52.524;13.340;2024-01-15T00:38:47;2.70;99.90
50067;DHT22;35952;52.524;13.340;2024-01-15T00:41:13;2.70;99.90
50067;DHT22;35952;52.524;13.340;2024-01-15T00:43:39;2.70;99.90
50067;DHT22;35952;52.524;13.340;2024-01-15T00:46:04;2.70;99.90
50067;DHT22;35952;52.524;13.340;2024-01-15T00:48:30;2.70;99.90
50067;DHT22;35952;52.524;13.340;2024-01-15T00:50:56;2.70;99.90
50067;DHT22;35952;52.524;13.340;2024-01-15T00:53:21;2.70;99.90
50067;DHT22;35952;52.524;13.340;2024-01-15T00:55:48;2.70;99.90
50067;DHT22;35952;52.524;13.340;2024-01-15T00:58:14;2.70;99.90
50067;DHT22;35952;52.524;13.340;2024-01-15T01:00:40;2.70;99.90
50067;DHT22;35952;52.524;13.340;2024-01-15T01:03:06;2.70;99.90
50067;DHT22;35952;52.524;13.340;2024-01-15T01:05:32;2.60;99.90
50067;DHT22;35952;52.524;13.340;2024-01-15T01:07:58;2.60;99.90
50067;DHT22;35952;52.524;13.340;2024-01-15T01:10:24;2.60;99.90
50067;DHT22;35952;52.524;13.340;2024-01-15T01:12:49;2.50;99.90
50067;DHT22;35952;52.524;13.340;2024-01-15T01:15:14;2.50;99.90
50067;DHT22;35952;52.524;13.340;2024-01-15T01:17:40;2.40;99.90
50067;DHT22;35952;52.524;13.340;2024-01-15T01:20:06;2.40;99.90
50067;DHT22;35952;52.524;13.340;2024-01-15T01:22:33;2.30;99.90
50067;DHT22;35952;52.524;13.340;2024-01-15T01:24:59;2.30;99.90
50067;DHT22;35952;52.524;13.340;2024-01-15T01:27:24;2.20;99.90
50067;DHT22;35952;52.524;13.340;2024-01-15T01:29:50;2.30;99.90
50067;DHT22;35952;52.524;13.340;2024-01-15T01:32:15;2.20;99.90
50067;DHT22;35952;52.524;13.340;2024-01-15T01:34:41;2.20;99.90
50067;DHT22;35952;52.524;13.340;2024-01-15T01:37:10;2.20;99.90
50067;DHT22;35952;52.524;13.340;2024-01-15T01:39:39;2.30;99.90
50067;DHT22;35952;52.524;13.340;2024-01-15T01:42:04;2.30;99.90
50067;DHT22;35952;52.524;13.340;2024-01-15T01:44:30;2.20;99.90
50067;DHT22;35952;52.524;13.340;2024-01-15T01:46:56;2.20;99.90
50067;DHT22;35952;52.524;13.340;2024-01-15T01:49:23;2.10;99.90
50067;DHT22;35952;52.524;13.340;2024-01-15T01:51:49;2.00;99.90
50067;DHT22;35952;52.524;13.340;2024-01-15T01:54:14;2.00;99.90
50067;DHT22;35952;52.524;13.340;2024-01-15T01:56:41;2.00;99.90
50067;DHT22;35952;52.524;13.340;2024-01-15T01:59:07;2.00;99.90
50067;DHT22;35952;52.524;13.340;2024-01-15T02:01:34;1.90;99.90
50067;DHT22;35952;52.524;13.340;2024-01-15T02:04:00;2.00;99.90
50067;DHT22;35952;52.524;13.340;2024-01-15T02:06:26;2.00;99.90
50067;DHT22;35952;52.524;13.340;2024-01-15T02:08:52;2.00;99.90
50067;DHT22;35952;52.524;13.340;2024-01-15T02:11:18;2.00;99.90
50067;DHT22;35952;52.524;13.340;2024-01-15T02:13:44;2.00;99.90
50067;DHT22;35952;52.524;13.340;2024-01-15T02:16:09;1.90;99.90
50067;DHT22;35952;52.524;13.340;2024-01-15T02:18:45;1.90;99.90
50067;DHT22;35952;52.524;13.340;2024-01-15T02:21:11;1.90;99.90
50067;DHT22;35952;52.524;13.340;2024-01-15T02:23:38;1.90;99.90
50067;DHT22;35952;52.524;13.340;2024-01-15T02:26:05;1.90;99.90
50067;DHT22;35952;52.524;13.340;2024-01-15T02:28:31;1.90;99.90
50067;DHT22;35952;52.524;13.340;2024-01-15T02:30:57;1.90;99.90
50067;DHT22;35952;52.524;13.340;2024-01-15T02:33:23;2.00;99.90
50067;DHT22;35952;52.524;13.340;2024-01-15T02:35:48;2.00;99.90
50067;DHT22;35952;52.524;13.340;2024-01-15T02:38:15;2.10;99.90
50067;DHT22;35952;52.524;13.340;2024-01-15T02:40:41;2.10;99.90
50067;DHT22;35952;52.524;13.340;2024-01-15T02:43:07;2.10;99.90
50067;DHT22;35952;52.524;13.340;2024-01-15T02:45:32;2.10;99.90
50067;DHT22;35952;52.524;13.340;2024-01-15T02:47:58;2.10;99.90
50067;DHT22;35952;52.524;13.340;2024-01-15T02:50:23;2.10;99.90
50067;DHT22;35952;52.524;13.340;2024-01-15T02:52:49;2.10;99.90
50067;DHT22;35952;52.524;13.340;2024-01-15T02:55:15;2.10;99.90
50067;DHT22;35952;52.524;13.340;2024-01-15T02:57:40;2.10;99.90
50067;DHT22;35952;52.524;13.340;2024-01-15T03:00:06;2.20;99.90
50067;DHT22;35952;52.524;13.340;2024-01-15T03:02:33;2.20;99.90
50067;DHT22;35952;52.524;13.340;2024-01-15T03:04:58;2.20;99.90
50067;DHT22;35952;52.524;13.340;2024-01-15T03:07:24;2.20;99.90
50067;DHT22;35952;52.524;13.340;2024-01-15T03:09:49;2.20;99.90
50067;DHT22;35952;52.524;13.340;2024-01-15T03:12:15;2.20;99.90
50067;DHT22;35952;52.524;13.340;2024-01-15T03:14:41;2.30;99.90
50067;DHT22;35952;52.524;13.340;2024-01-15T03:17:06;2.30;99.90
50067;DHT22;35952;52.524;13.340;2024-01-15T03:19:35;2.30;99.90
50067;DHT22;35952;52.524;13.340;2024-01-15T03:22:00;2.30;99.90
50067;DHT22;35952;52.524;13.340;2024-01-15T03:24:28;2.30;99.90
50067;DHT22;35952;52.524;13.340;2024-01-15T03:26:53;2.30;99.90
50067;DHT22;35952;52.524;13.340;2024-01-15T03:29:19;2.30;99.90
50067;DHT22;35952;52.524;13.340;2024-01-15T03:31:44;2.40;99.90
50067;DHT22;35952;52.524;13.340;2024-01-15T03:34:09;2.40;99.90
50067;DHT22;35952;52.524;13.340;2024-01-15T03:36:35;2.30;99.90
50067;DHT22;35952;52.524;13.340;2024-01-15T03:39:01;2.20;99.90
50067;DHT22;35952;52.524;13.340;2024-01-15T03:41:26;2.30;99.90
50067;DHT22;35952;52.524;13.340;2024-01-15T03:43:51;2.30;99.90
50067;DHT22;35952;52.524;13.340;2024-01-15T03:46:17;2.20;99.90
50067;DHT22;35952;52.524;13.340;2024-01-15T03:48:43;2.30;99.90
50067;DHT22;35952;52.524;13.340;2024-01-15T03:51:08;2.30;99.90
50067;DHT22;35952;52.524;13.340;2024-01-15T03:53:33;2.30;99.90
50067;DHT22;35952;52.524;13.340;2024-01-15T03:55:59;2.40;99.90
50067;DHT22;35952;52.524;13.340;2024-01-15T03:58:24;2.30;99.90
50067;DHT22;35952;52.524;13.340;2024-01-15T04:00:50;2.40;99.90
50067;DHT22;35952;52.524;13.340;2024-01-15T04:03:15;2.40;99.90
50067;DHT22;35952;52.524;13.340;2024-01-15T04:05:41;2.40;99.90
50067;DHT22;35952;52.524;13.340;2024-01-15T04:08:06;2.40;99.90
50067;DHT22;35952;52.524;13.340;2024-01-15T04:10:32;2.40;99.90
50067;DHT22;35952;52.524;13.340;2024-01-15T04:12:57;2.40;99.90
50067;DHT22;35952;52.524;13.340;2024-01-15T04:15:25;2.30;99.90
50067;DHT22;35952;52.524;13.340;2024-01-15T04:17:51;2.40;99.90
50067;DHT22;35952;52.524;13.340;2024-01-15T04:20:17;2.30;99.90
50067;DHT22;35952;52.524;13.340;2024-01-15T04:22:43;2.40;99.90
50067;DHT22;35952;52.524;13.340;2024-01-15T04:25:09;2.30;99.90
50067;DHT22;35952;52.524;13.340;2024-01-15T04:27:34;2.40;99.90
50067;DHT22;35952;52.524;13.340;2024-01-15T04:30:00;2.40;99.90
50067;DHT22;35952;52.524;13.340;2024-01-15T04:32:25;2.40;99.90
50067;DHT22;35952;52.524;13.340;2024-01-15T04:34:51;2.40;99.90
50067;DHT22;35952;52.524;13.340;2024-01-15T04:37:17;2.40;99.90
50067;DHT22;35952;52.524;13.340;2024-01-15T04:39:42;2.40;99.90
50067;DHT22;35952;52.524;13.340;2024-01-15T04:42:08;2.40;99.90
50067;DHT22;35952;52.524;13.340;2024-01-15T04:44:33;2.40;99.90
50067;DHT22;35952;52.524;13.340;2024-01-15T04:46:59;2.50;99.90
50067;DHT22;35952;52.524;13.340;2024-01-15T04:49:25;2.40;99.90
50067;DHT22;35952;52.524;13.340;2024-01-15T04:51:55;2.40;99.90
50067;DHT22;35952;52.524;13.340;2024-01-15T04:54:20;2.40;99.90
50067;DHT22;35952;52.524;13.340;2024-01-15T04:56:46;2.40;99.90
50067;DHT22;35952;52.524;13.340;2024-01-15T04:59:12;2.30;99.90
50067;DHT22;35952;52.524;13.340;2024-01-15T05:01:38;2.30;99.90
50067;DHT22;35952;52.524;13.340;2024-01-15T05:04:03;2.40;99.90
50067;DHT22;35952;52.524;13.340;2024-01-15T05:06:29;2.40;99.90
50067;DHT22;35952;52.524;13.340;2024-01-15T05:08:54;2.50;99.90
50067;DHT22;35952;52.524;13.340;2024-01-15T05:11:20;2.50;99.90
50067;DHT22;35952;52.524;13.340;2024-01-15T05:13:45;2.50;99.90
50067;DHT22;35952;52.524;13.340;2024-01-15T05:16:11;2.50;99.90
50067;DHT22;35952;52.524;13.340;2024-01-15T05:18:36;2.50;99.90
50067;DHT22;35952;52.524;13.340;2024-01-15T05:21:05;2.50;99.90
50067;DHT22;35952;52.524;13.340;2024-01-15T05:23:34;2.50;99.90
50067;DHT22;35952;52.524;13.340;2024-01-15T05:25:59;2.50;99.90
50067;DHT22;35952;52.524;13.340;2024-01-15T05:28:25;2.50;99.90
50067;DHT22;35952;52.524;13.340;2024-01-15T05:30:51;2.50;99.90
50067;DHT22;35952;52.524;13.340;2024-01-15T05:33:17;2.50;99.90
50067;DHT22;35952;52.524;13.340;2024-01-15T05:35:42;2.60;99.90
50067;DHT22;35952;52.524;13.340;2024-01-15T05:38:08;2.60;99.90
50067;DHT22;35952;52.524;13.340;2024-01-15T05:40:34;2.60;99.90
50067;DHT22;35952;52.524;13.340;2024-01-15T05:42:59;2.50;99.90
50067;DHT22;35952;52.524;13.340;2024-01-15T05:45:26;2.60;99.90
50067;DHT22;35952;52.524;13.340;2024-01-15T05:47:52;2.70;99.90
50067;DHT22;35952;52.524;13.340;2024-01-15T05:50:18;2.60;99.90
50067;DHT22;35952;52.524;13.340;2024-01-15T05:52:43;2.70;99.90
50067;DHT22;35952;52.524;13.340;2024-01-15T05:55:09;2.70;99.90
50067;DHT22;35952;52.524;13.340;2024-01-15T05:57:35;2.60;99.90
50067;DHT22;35952;52.524;13.340;2024-01-15T06:00:02;2.60;99.90
50067;DHT22;35952;52.524;13.340;2024-01-15T06:02:28;2.50;99.90
50067;DHT22;35952;52.524;13.340;2024-01-15T06:04:53;2.40;99.90
50067;DHT22;35952;52.524;13.340;2024-01-15T06:07:19;2.40;99.90
50067;DHT22;35952;52.524;13.340;2024-01-15T06:09:45;2.40;99.90
50067;DHT22;35952;52.524;13.340;2024-01-15T06:12:10;2.40;99.90
50067;DHT22;35952;52.524;13.340;2024-01-15T06:14:36;2.50;99.90
50067;DHT22;35952;52.524;13.340;2024-01-15T06:17:01;2.50;99.90
50067;DHT22;35952;52.524;13.340;2024-01-15T06:19:27;2.50;99.90
50067;DHT22;35952;52.524;13.340;2024-01-15T06:21:53;2.60;99.90
50067;DHT22;35952;52.524;13.340;2024-01-15T06:24:18;2.60;99.90
50067;DHT22;35952;52.524;13.340;2024-01-15T06:26:48;2.60;99.90
50067;DHT22;35952;52.524;13.340;2024-01-15T06:29:14;2.60;99.90
50067;DHT22;35952;52.524;13.340;2024-01-15T06:31:39;2.60;99.90
50067;DHT22;35952;52.524;13.340;2024-01-15T06:34:05;2.60;99.90
50067;DHT22;35952;52.524;13.340;2024-01-15T06:36:30;2.60;99.90
50067;DHT22;35952;52.524;13.340;2024-01-15T06:38:56;2.70;99.90
50067;DHT22;35952;52.524;13.340;2024-01-15T06:41:21;2.70;99.90
50067;DHT22;35952;52.524;13.340;2024-01-15T06:43:48;2.60;99.90
50067;DHT22;35952;52.524;13.340;2024-01-15T06:46:20;2.60;99.90
50067;DHT22;35952;52.524;13.340;2024-01-15T06:48:45;2.70;99.90
50067;DHT22;35952;52.524;13.340;2024-01-15T06:51:11;2.60;99.90
50067;DHT22;35952;52.524;13.340;2024-01-15T06:53:36;2.70;99.90
50067;DHT22;35952;52.524;13.340;2024-01-15T06:56:02;2.70;99.90
50067;DHT22;35952;52.524;13.340;2024-01-15T06:58:27;2.60;99.90
50067;DHT22;35952;52.524;13.340;2024-01-15T07:00:53;2.60;99.90
50067;DHT22;35952;52.524;13.340;2024-01-15T07:03:19;2.70;99.90
50067;DHT22;35952;52.524;13.340;2024-01-15T07:05:44;2.70;99.90
50067;DHT22;35952;52.524;13.340;2024-01-15T07:08:10;2.80;99.90
50067;DHT22;35952;52.524;13.340;2024-01-15T07:10:35;2.90;99.90
50067;DHT22;35952;52.524;13.340;2024-01-15T07:13:01;2.90;99.90
50067;DHT22;35952;52.524;13.340;2024-01-15T07:15:26;2.90;99.90
50067;DHT22;35952;52.524;13.340;2024-01-15T07:17:52;2.90;99.90
50067;DHT22;35952;52.524;13.340;2024-01-15T07:20:17;2.90;99.90
50067;DHT22;35952;52.524;13.340;2024-01-15T07:22:44;2.90;99.90
50067;DHT22;35952;52.524;13.340;2024-01-15T07:25:10;2.90;99.90
50067;DHT22;35952;52.524;13.340;2024-01-15T07:27:36;2.90;99.90
50067;DHT22;35952;52.524;13.340;2024-01-15T07:30:01;3.00;99.90
50067;DHT22;35952;52.524;13.340;2024-01-15T07:32:29;3.00;99.90
50067;DHT22;35952;52.524;13.340;2024-01-15T07:34:56;3.00;99.90
50067;DHT22;35952;52.524;13.340;2024-01-15T07:37:21;3.00;99.90
50067;DHT22;35952;52.524;13.340;2024-01-15T07:39:48;3.00;99.90
50067;DHT22;35952;52.524;13.340;2024-01-15T07:42:14;3.00;99.90
50067;DHT22;35952;52.524;13.340;2024-01-15T07:44:39;3.00;99.90
50067;DHT22;35952;52.524;13.340;2024-01-15T07:47:05;3.00;99.90
50067;DHT22;35952;52.524;13.340;2024-01-15T07:49:31;3.00;99.90
50067;DHT22;35952;52.524;13.340;2024-01-15T07:51:56;3.10;99.90
50067;DHT22;35952;52.524;13.340;2024-01-15T07:54:22;3.10;99.90
50067;DHT22;35952;52.524;13.340;2024-01-15T07:56:59;3.10;99.90
50067;DHT22;35952;52.524;13.340;2024-01-15T07:59:26;3.10;99.90
50067;DHT22;35952;52.524;13.340;2024-01-15T08:01:52;3.00;99.90
50067;DHT22;35952;52.524;13.340;2024-01-15T08:04:19;3.10;99.90
50067;DHT22;35952;52.524;13.340;2024-01-15T08:06:44;3.10;99.90
50067;DHT22;35952;52.524;13.340;2024-01-15T08:09:10;3.10;99.90
50067;DHT22;35952;52.524;13.340;2024-01-15T08:11:39;3.10;99.90
50067;DHT22;35952;52.524;13.340;2024-01-15T08:14:05;3.10;99.90
50067;DHT22;35952;52.524;13.340;2024-01-15T08:16:31;3.10;99.90
50067;DHT22;35952;52.524;13.340;2024-01-15T08:18:57;3.10;99.90
50067;DHT22;35952;52.524;13.340;2024-01-15T08:21:23;3.10;99.90
50067;DHT22;35952;52.524;13.340;2024-01-15T08:23:49;3.10;99.90
50067;DHT22;35952;52.524;13.340;2024-01-15T08:26:14;3.10;99.90
50067;DHT22;35952;52.524;13.340;2024-01-15T08:28:40;3.10;99.90
50067;DHT22;35952;52.524;13.340;2024-01-15T08:31:05;3.10;99.90
50067;DHT22;35952;52.524;13.340;2024-01-15T08:33:30;3.20;99.90
50067;DHT22;35952;52.524;13.340;2024-01-15T08:35:56;3.20;99.90
50067;DHT22;35952;52.524;13.340;2024-01-15T08:38:21;3.20;99.90
50067;DHT22;35952;52.524;13.340;2024-01-15T08:40:49;3.20;99.90
50067;DHT22;35952;52.524;13.340;2024-01-15T08:43:14;3.20;99.90
50067;DHT22;35952;52.524;13.340;2024-01-15T08:45:40;3.20;99.90
50067;DHT22;35952;52.524;13.340;2024-01-15T08:48:06;3.20;99.90
50067;DHT22;35952;52.524;13.340;2024-01-15T08:50:32;3.30;99.90
50067;DHT22;35952;52.524;13.340;2024-01-15T08:52:58;3.20;99.90
50067;DHT22;35952;52.524;13.340;2024-01-15T08:55:24;3.20;99.90
50067;DHT22;35952;52.524;13.340;2024-01-15T08:57:50;3.20;99.90
50067;DHT22;35952;52.524;13.340;2024-01-15T09:00:16;3.20;99.90
50067;DHT22;35952;52.524;13.340;2024-01-15T09:02:42;3.20;99.90
50067;DHT22;35952;52.524;13.340;2024-01-15T09:05:08;3.20;99.90
50067;DHT22;35952;52.524;13.340;2024-01-15T09:07:33;3.10;99.90
50067;DHT22;35952;52.524;13.340;2024-01-15T09:09:59;3.10;99.90
50067;DHT22;35952;52.524;13.340;2024-01-15T09:12:25;3.30;99.90
50067;DHT22;35952;52.524;13.340;2024-01-15T09:14:51;3.30;99.90
50067;DHT22;35952;52.524;13.340;2024-01-15T09:17:17;3.30;99.90
50067;DHT22;35952;52.524;13.340;2024-01-15T09:19:43;3.20;99.90
50067;DHT22;35952;52.524;13.340;2024-01-15T09:22:09;3.20;99.90
50067;DHT22;35952;52.524;13.340;2024-01-15T09:24:35;3.30;99.90
50067;DHT22;35952;52.524;13.340;2024-01-15T09:27:00;3.30;99.90
50067;DHT22;35952;52.524;13.340;2024-01-15T09:29:26;3.40;99.90
50067;DHT22;35952;52.524;13.340;2024-01-15T09:31:52;3.50;99.90
50067;DHT22;35952;52.524;13.340;2024-01-15T09:34:17;3.50;99.90
50067;DHT22;35952;52.524;13.340;2024-01-15T09:36:43;3.40;99.90
50067;DHT22;35952;52.524;13.340;2024-01-15T09:39:09;3.40;99.90
50067;DHT22;35952;52.524;13.340;2024-01-15T09:41:36;3.50;99.90
50067;DHT22;35952;52.524;13.340;2024-01-15T09:44:03;3.50;99.90
50067;DHT22;35952;52.524;13.340;2024-01-15T09:46:31;3.60;99.90
50067;DHT22;35952;52.524;13.340;2024-01-15T09:48:56;3.60;99.90
50067;DHT22;35952;52.524;13.340;2024-01-15T09:51:23;3.60;99.90
50067;DHT22;35952;52.524;13.340;2024-01-15T09:53:50;3.60;99.90
50067;DHT22;35952;52.524;13.340;2024-01-15T09:56:16;3.60;99.90
50067;DHT22;35952;52.524;13.340;2024-01-15T09:58:42;3.60;99.90
50067;DHT22;35952;52.524;13.340;2024-01-15T10:01:08;3.60;99.90
50067;DHT22;35952;52.524;13.340;2024-01-15T10:03:34;3.60;99.90
50067;DHT22;35952;52.524;13.340;2024-01-15T10:06:00;3.60;99.90
50067;DHT22;35952;52.524;13.340;2024-01-15T10:08:25;3.60;99.90
50067;DHT22;35952;52.524;13.340;2024-01-15T10:10:51;3.60;99.90
50067;DHT22;35952;52.524;13.340;2024-01-15T10:13:17;3.60;99.90
50067;DHT22;35952;52.524;13.340;2024-01-15T10:15:45;3.60;99.90
50067;DHT22;35952;52.524;13.340;2024-01-15T10:18:12;3.60;99.90
50067;DHT22;35952;52.524;13.340;2024-01-15T10:20:38;3.60;99.90
50067;DHT22;35952;52.524;13.340;2024-01-15T10:23:04;3.60;99.90
50067;DHT22;35952;52.524;13.340;2024-01-15T10:25:30;3.70;99.90
50067;DHT22;35952;52.524;13.340;2024-01-15T10:28:03;3.80;99.90
50067;DHT22;35952;52.524;13.340;2024-01-15T10:30:30;3.90;99.90
50067;DHT22;35952;52.524;13.340;2024-01-15T10:33:00;3.90;99.90
50067;DHT22;35952;52.524;13.340;2024-01-15T10:35:30;4.00;99.90
50067;DHT22;35952;52.524;13.340;2024-01-15T10:37:57;4.10;99.90
50067;DHT22;35952;52.524;13.340;2024-01-15T10:40:23;4.00;99.90
50067;DHT22;35952;52.524;13.340;2024-01-15T10:42:49;3.90;99.90
50067;DHT22;35952;52.524;13.340;2024-01-15T10:45:14;3.90;99.90
50067;DHT22;35952;52.524;13.340;2024-01-15T10:47:43;3.90;99.90
50067;DHT22;35952;52.524;13.340;2024-01-15T10:50:10;3.90;99.90
50067;DHT22;35952;52.524;13.340;2024-01-15T10:52:36;4.00;99.90
50067;DHT22;35952;52.524;13.340;2024-01-15T10:55:03;4.00;99.90
50067;DHT22;35952;52.524;13.340;2024-01-15T10:57:32;4.00;99.90
50067;DHT22;35952;52.524;13.340;2024-01-15T10:59:58;4.00;99.90
50067;DHT22;35952;52.524;13.340;2024-01-15T11:02:25;3.90;99.90
50067;DHT22;35952;52.524;13.340;2024-01-15T11:04:51;3.90;99.90
50067;DHT22;35952;52.524;13.340;2024-01-15T11:07:17;3.90;99.90
50067;DHT22;35952;52.524;13.340;2024-01-15T11:09:43;4.00;99.90
50067;DHT22;35952;52.524;13.340;2024-01-15T11:12:12;4.10;99.90
50067;DHT22;35952;52.524;13.340;2024-01-15T11:14:39;4.20;99.90
50067;DHT22;35952;52.524;13.340;2024-01-15T11:17:05;4.00;99.90
50067;DHT22;35952;52.524;13.340;2024-01-15T11:19:48;4.00;99.90
50067;DHT22;35952;52.524;13.340;2024-01-15T11:22:47;3.90;99.90
50067;DHT22;35952;52.524;13.340;2024-01-15T11:25:14;3.90;99.90
50067;DHT22;35952;52.524;13.340;2024-01-15T11:27:47;3.80;99.90
50067;DHT22;35952;52.524;13.340;2024-01-15T11:30:13;3.70;99.90
50067;DHT22;35952;52.524;13.340;2024-01-15T11:32:40;3.70;99.90
50067;DHT22;35952;52.524;13.340;2024-01-15T11:35:09;3.70;99.90
50067;DHT22;35952;52.524;13.340;2024-01-15T11:40:39;3.70;99.90
50067;DHT22;35952;52.524;13.340;2024-01-15T11:43:06;3.70;99.90
50067;DHT22;35952;52.524;13.340;2024-01-15T11:45:32;3.70;99.90
50067;DHT22;35952;52.524;13.340;2024-01-15T11:48:12;3.70;99.90
50067;DHT22;35952;52.524;13.340;2024-01-15T11:50:46;3.60;99.90
50067;DHT22;35952;52.524;13.340;2024-01-15T11:55:45;3.40;99.90
50067;DHT22;35952;52.524;13.340;2024-01-15T11:58:11;3.30;99.90
50067;DHT22;35952;52.524;13.340;2024-01-15T12:00:44;3.20;99.90
50067;DHT22;35952;52.524;13.340;2024-01-15T12:03:10;3.10;99.90
50067;DHT22;35952;52.524;13.340;2024-01-15T12:05:39;3.10;99.90
50067;DHT22;35952;52.524;13.340;2024-01-15T12:08:07;3.10;99.90
50067;DHT22;35952;52.524;13.340;2024-01-15T12:10:36;3.10;99.90
50067;DHT22;35952;52.524;13.340;2024-01-15T12:13:13;3.10;99.90
50067;DHT22;35952;52.524;13.340;2024-01-15T12:15:39;3.10;99.90
50067;DHT22;35952;52.524;13.340;2024-01-15T12:18:07;3.10;99.90
50067;DHT22;35952;52.524;13.340;2024-01-15T12:20:33;3.10;99.90
50067;DHT22;35952;52.524;13.340;2024-01-15T12:23:00;3.00;99.90
50067;DHT22;35952;52.524;13.340;2024-01-15T12:25:26;3.00;99.90
50067;DHT22;35952;52.524;13.340;2024-01-15T12:27:55;3.10;99.90
50067;DHT22;35952;52.524;13.340;2024-01-15T12:30:20;3.10;99.90
50067;DHT22;35952;52.524;13.340;2024-01-15T12:32:46;3.20;99.90
50067;DHT22;35952;52.524;13.340;2024-01-15T12:35:13;3.10;99.90
50067;DHT22;35952;52.524;13.340;2024-01-15T12:37:42;3.10;99.90
50067;DHT22;35952;52.524;13.340;2024-01-15T12:40:09;3.00;99.90
50067;DHT22;35952;52.524;13.340;2024-01-15T12:42:36;3.10;99.90
50067;DHT22;35952;52.524;13.340;2024-01-15T12:45:03;3.00;99.90
50067;DHT22;35952;52.524;13.340;2024-01-15T12:47:30;2.80;99.90
50067;DHT22;35952;52.524;13.340;2024-01-15T12:49:57;2.70;99.90
50067;DHT22;35952;52.524;13.340;2024-01-15T12:52:29;2.60;99.90
50067;DHT22;35952;52.524;13.340;2024-01-15T12:54:55;2.60;99.90
50067;DHT22;35952;52.524;13.340;2024-01-15T12:57:21;2.60;99.90
50067;DHT22;35952;52.524;13.340;2024-01-15T12:59:47;2.60;99.90
50067;DHT22;35952;52.524;13.340;2024-01-15T13:02:13;2.60;99.90
50067;DHT22;35952;52.524;13.340;2024-01-15T13:04:39;2.60;99.90
50067;DHT22;35952;52.524;13.340;2024-01-15T13:07:08;2.70;99.90
50067;DHT22;35952;52.524;13.340;2024-01-15T13:09:34;2.70;99.90
50067;DHT22;35952;52.524;13.340;2024-01-15T13:12:01;2.80;99.90
50067;DHT22;35952;52.524;13.340;2024-01-15T13:14:27;2.80;99.90
50067;DHT22;35952;52.524;13.340;2024-01-15T13:16:53;2.80;99.90
50067;DHT22;35952;52.524;13.340;2024-01-15T13:19:19;2.80;99.90
50067;DHT22;35952;52.524;13.340;2024-01-15T13:21:46;2.90;99.90
50067;DHT22;35952;52.524;13.340;2024-01-15T13:24:11;2.90;99.90
50067;DHT22;35952;52.524;13.340;2024-01-15T13:26:37;2.90;99.90
50067;DHT22;35952;52.524;13.340;2024-01-15T13:29:03;2.90;99.90
50067;DHT22;35952;52.524;13.340;2024-01-15T13:31:29;2.90;99.90
50067;DHT22;35952;52.524;13.340;2024-01-15T13:33:55;2.80;99.90
50067;DHT22;35952;52.524;13.340;2024-01-15T13:36:24;2.80;99.90
50067;DHT22;35952;52.524;13.340;2024-01-15T13:38:50;2.90;99.90
50067;DHT22;35952;52.524;13.340;2024-01-15T13:41:17;2.90;99.90
50067;DHT22;35952;52.524;13.340;2024-01-15T13:43:45;2.90;99.90
50067;DHT22;35952;52.524;13.340;2024-01-15T13:46:11;2.80;99.90
50067;DHT22;35952;52.524;13.340;2024-01-15T13:48:37;2.80;99.90
50067;DHT22;35952;52.524;13.340;2024-01-15T13:51:02;2.80;99.90
50067;DHT22;35952;52.524;13.340;2024-01-15T13:53:28;2.80;99.90
50067;DHT22;35952;52.524;13.340;2024-01-15T13:55:54;2.80;99.90
50067;DHT22;35952;52.524;13.340;2024-01-15T13:58:20;2.80;99.90
50067;DHT22;35952;52.524;13.340;2024-01-15T14:00:47;2.80;99.90
50067;DHT22;35952;52.524;13.340;2024-01-15T14:03:12;2.80;99.90
50067;DHT22;35952;52.524;13.340;2024-01-15T14:05:38;2.80;99.90
50067;DHT22;35952;52.524;13.340;2024-01-15T14:08:04;2.80;99.90
50067;DHT22;35952;52.524;13.340;2024-01-15T14:10:29;2.80;99.90
50067;DHT22;35952;52.524;13.340;2024-01-15T14:12:55;2.80;99.90
50067;DHT22;35952;52.524;13.340;2024-01-15T14:15:20;2.80;99.90
50067;DHT22;35952;52.524;13.340;2024-01-15T14:17:47;2.80;99.90
50067;DHT22;35952;52.524;13.340;2024-01-15T14:20:12;2.90;99.90
50067;DHT22;35952;52.524;13.340;2024-01-15T14:22:38;2.80;99.90
50067;DHT22;35952;52.524;13.340;2024-01-15T14:25:04;2.90;99.90
50067;DHT22;35952;52.524;13.340;2024-01-15T14:27:29;2.90;99.90
50067;DHT22;35952;52.524;13.340;2024-01-15T14:29:55;2.90;99.90
50067;DHT22;35952;52.524;13.340;2024-01-15T14:32:20;3.00;99.90
50067;DHT22;35952;52.524;13.340;2024-01-15T14:34:46;2.90;99.90
50067;DHT22;35952;52.524;13.340;2024-01-15T14:37:11;2.90;99.90
50067;DHT22;35952;52.524;13.340;2024-01-15T14:39:37;2.90;99.90
50067;DHT22;35952;52.524;13.340;2024-01-15T14:42:02;3.00;99.90
50067;DHT22;35952;52.524;13.340;2024-01-15T14:44:28;3.00;99.90
50067;DHT22;35952;52.524;13.340;2024-01-15T14:46:54;3.00;99.90
50067;DHT22;35952;52.524;13.340;2024-01-15T14:49:20;2.90;99.90
50067;DHT22;35952;52.524;13.340;2024-01-15T14:51:45;2.80;99.90
50067;DHT22;35952;52.524;13.340;2024-01-15T14:54:11;2.80;99.90
50067;DHT22;35952;52.524;13.340;2024-01-15T14:56:36;2.90;99.90
50067;DHT22;35952;52.524;13.340;2024-01-15T14:59:02;2.90;99.90
50067;DHT22;35952;52.524;13.340;2024-01-15T15:01:28;2.80;99.90
50067;DHT22;35952;52.524;13.340;2024-01-15T15:03:53;2.90;99.90
50067;DHT22;35952;52.524;13.340;2024-01-15T15:06:19;2.90;99.90
50067;DHT22;35952;52.524;13.340;2024-01-15T15:08:46;2.90;99.90
50067;DHT22;35952;52.524;13.340;2024-01-15T15:11:11;2.90;99.90
50067;DHT22;35952;52.524;13.340;2024-01-15T15:13:37;2.90;99.90
50067;DHT22;35952;52.524;13.340;2024-01-15T15:16:03;2.90;99.90
50067;DHT22;35952;52.524;13.340;2024-01-15T15:18:28;2.90;99.90
50067;DHT22;35952;52.524;13.340;2024-01-15T15:20:55;2.90;99.90
50067;DHT22;35952;52.524;13.340;2024-01-15T15:23:21;2.80;99.90
50067;DHT22;35952;52.524;13.340;2024-01-15T15:25:47;2.70;99.90
50067;DHT22;35952;52.524;13.340;2024-01-15T15:28:12;2.70;99.90
50067;DHT22;35952;52.524;13.340;2024-01-15T15:30:39;2.70;99.90